sensor_id;sensor_type;location;lat;lon;timestamp;pressure;altitude;pressure_sealevel;temperature;humidity
84734;BME280;74957;48.082;17.260;2024-03-29T00:01:02;992.969;;;7.464;92.859
84734;BME280;74957;48.082;17.260;2024-03-29T00:06:03;993.14;;;7.363;93.06
84734;BME280;74957;48.082;17.260;2024-03-29T00:10:58;993.234;;;7.313;93.414
84734;BME280;74957;48.082;17.260;2024-03-29T00:16:17;993.4;;;7.182;93.518
84734;BME280;74957;48.082;17.260;2024-03-29T00:21:04;993.466;;;7.151;94.238
84734;BME280;74957;48.082;17.260;2024-03-29T00:26:06;993.593;;;7.182;93.622
84734;BME280;74957;48.082;17.260;2024-03-29T00:31:09;993.582;;;7.091;93.665
84734;BME280;74957;48.082;17.260;2024-03-29T00:36:03;993.773;;;7.081;93.976
84734;BME280;74957;48.082;17.260;2024-03-29T00:41:05;993.729;;;6.99;94.177
84734;BME280;74957;48.082;17.260;2024-03-29T00:46:15;993.774;;;6.94;94.489
84734;BME280;74957;48.082;17.260;2024-03-29T00:51:02;993.835;;;6.87;94.739
84734;BME280;74957;48.082;17.260;2024-03-29T00:56:03;993.816;;;6.769;94.843
84734;BME280;74957;48.082;17.260;2024-03-29T01:01:09;993.789;;;6.698;95.197
84734;BME280;74957;48.082;17.260;2024-03-29T01:06:04;993.941;;;6.668;96.228
84734;BME280;74957;48.082;17.260;2024-03-29T01:11:07;993.938;;;6.567;96.741
84734;BME280;74957;48.082;17.260;2024-03-29T01:16:10;993.871;;;6.517;97.363
84734;BME280;74957;48.082;17.260;2024-03-29T01:21:04;994.172;;;6.507;96.948
84734;BME280;74957;48.082;17.260;2024-03-29T01:26:04;994.043;;;6.487;96.948
84734;BME280;74957;48.082;17.260;2024-03-29T01:31:10;994.277;;;6.517;97.052
84734;BME280;74957;48.082;17.260;2024-03-29T01:36:03;994.31;;;6.537;96.741
84734;BME280;74957;48.082;17.260;2024-03-29T01:41:04;994.492;;;6.447;96.991
84734;BME280;74957;48.082;17.260;2024-03-29T01:46:11;994.639;;;6.366;97.198
84734;BME280;74957;48.082;17.260;2024-03-29T01:51:04;994.634;;;6.366;97.614
84734;BME280;74957;48.082;17.260;2024-03-29T01:56:06;994.68;;;6.336;98.23
84734;BME280;74957;48.082;17.260;2024-03-29T02:01:13;994.765;;;6.356;98.438
84734;BME280;74957;48.082;17.260;2024-03-29T02:06:02;994.787;;;6.306;98.541
84734;BME280;74957;48.082;17.260;2024-03-29T02:11:04;994.817;;;6.285;98.541
84734;BME280;74957;48.082;17.260;2024-03-29T02:16:03;995.043;;;6.255;98.895
84734;BME280;74957;48.082;17.260;2024-03-29T02:21:04;994.913;;;6.235;99.414
84734;BME280;74957;48.082;17.260;2024-03-29T02:26:03;994.726;;;6.175;99.31
84734;BME280;74957;48.082;17.260;2024-03-29T02:31:14;995.055;;;6.205;98.792
84734;BME280;74957;48.082;17.260;2024-03-29T02:36:08;995.296;;;6.054;98.999
84734;BME280;74957;48.082;17.260;2024-03-29T02:41:05;995.174;;;6.024;99.353
84734;BME280;74957;48.082;17.260;2024-03-29T02:46:09;995.11;;;6.024;99.457
84734;BME280;74957;48.082;17.260;2024-03-29T02:51:06;995.154;;;6.034;99.976
84734;BME280;74957;48.082;17.260;2024-03-29T02:56:07;995.241;;;5.963;99.976
84734;BME280;74957;48.082;17.260;2024-03-29T03:01:09;995.126;;;5.893;99.994
84734;BME280;74957;48.082;17.260;2024-03-29T03:06:05;995.157;;;5.772;99.994
84734;BME280;74957;48.082;17.260;2024-03-29T03:11:06;995.23;;;5.691;99.994
84734;BME280;74957;48.082;17.260;2024-03-29T03:16:09;995.05;;;5.752;99.994
84734;BME280;74957;48.082;17.260;2024-03-29T03:21:06;994.935;;;5.812;99.994
84734;BME280;74957;48.082;17.260;2024-03-29T03:26:05;995.081;;;5.862;99.994
84734;BME280;74957;48.082;17.260;2024-03-29T03:31:12;995.178;;;5.923;99.994
84734;BME280;74957;48.082;17.260;2024-03-29T03:36:04;995.417;;;5.792;99.994
84734;BME280;74957;48.082;17.260;2024-03-29T03:41:03;995.606;;;5.792;99.994
84734;BME280;74957;48.082;17.260;2024-03-29T03:46:06;995.436;;;5.721;99.994
84734;BME280;74957;48.082;17.260;2024-03-29T03:51:04;995.433;;;5.711;99.994
84734;BME280;74957;48.082;17.260;2024-03-29T03:56:05;995.363;;;5.57;99.994
84734;BME280;74957;48.082;17.260;2024-03-29T04:01:07;995.475;;;5.45;99.994
84734;BME280;74957;48.082;17.260;2024-03-29T04:06:10;995.716;;;5.389;99.994
84734;BME280;74957;48.082;17.260;2024-03-29T04:11:07;996.038;;;5.278;99.994
84734;BME280;74957;48.082;17.260;2024-03-29T04:21:07;995.812;;;4.875;99.994
84734;BME280;74957;48.082;17.260;2024-03-29T04:26:06;995.92;;;4.694;99.994
84734;BME280;74957;48.082;17.260;2024-03-29T04:31:10;996.031;;;4.513;99.994
84734;BME280;74957;48.082;17.260;2024-03-29T04:36:06;995.895;;;4.412;99.994
84734;BME280;74957;48.082;17.260;2024-03-29T04:41:05;995.806;;;4.372;99.994
84734;BME280;74957;48.082;17.260;2024-03-29T04:46:09;995.839;;;4.382;99.994
84734;BME280;74957;48.082;17.260;2024-03-29T04:51:07;996.042;;;4.271;99.994
84734;BME280;74957;48.082;17.260;2024-03-29T04:56:06;995.866;;;4.12;99.994
84734;BME280;74957;48.082;17.260;2024-03-29T05:01:13;995.862;;;4.1;99.994
84734;BME280;74957;48.082;17.260;2024-03-29T05:06:05;996.028;;;4.05;99.994
84734;BME280;74957;48.082;17.260;2024-03-29T05:11:05;996.106;;;4.12;99.994
84734;BME280;74957;48.082;17.260;2024-03-29T05:16:06;995.996;;;4.14;99.994
84734;BME280;74957;48.082;17.260;2024-03-29T05:21:07;996.019;;;4.191;99.994
84734;BME280;74957;48.082;17.260;2024-03-29T05:26:08;996.133;;;4.221;99.994
84734;BME280;74957;48.082;17.260;2024-03-29T05:31:15;996.371;;;4.352;99.994
84734;BME280;74957;48.082;17.260;2024-03-29T05:36:12;996.267;;;4.412;99.994
84734;BME280;74957;48.082;17.260;2024-03-29T05:41:09;996.436;;;4.382;99.994
84734;BME280;74957;48.082;17.260;2024-03-29T05:46:18;996.398;;;4.946;99.994
84734;BME280;74957;48.082;17.260;2024-03-29T05:51:04;996.509;;;5.993;99.976
84734;BME280;74957;48.082;17.260;2024-03-29T05:56:04;996.36;;;5.993;98.737
84734;BME280;74957;48.082;17.260;2024-03-29T06:01:08;996.369;;;5.903;99.561
84734;BME280;74957;48.082;17.260;2024-03-29T06:06:00;996.589;;;6.034;99.994
84734;BME280;74957;48.082;17.260;2024-03-29T06:16:03;996.593;;;6.9;99.377
84734;BME280;74957;48.082;17.260;2024-03-29T06:26:11;996.804;;;9.357;90.259
84734;BME280;74957;48.082;17.260;2024-03-29T06:31:12;996.705;;;10.112;85.687
84734;BME280;74957;48.082;17.260;2024-03-29T06:36:12;996.734;;;10.706;82.806
84734;BME280;74957;48.082;17.260;2024-03-29T06:41:05;996.696;;;10.948;80.725
84734;BME280;74957;48.082;17.260;2024-03-29T06:46:10;996.888;;;11.109;80.316
84734;BME280;74957;48.082;17.260;2024-03-29T06:51:11;996.966;;;11.22;79.462
84734;BME280;74957;48.082;17.260;2024-03-29T06:56:08;996.863;;;11.663;78.979
84734;BME280;74957;48.082;17.260;2024-03-29T07:01:20;996.846;;;12.308;76.526
84734;BME280;74957;48.082;17.260;2024-03-29T07:06:09;996.903;;;13.113;72.858
84734;BME280;74957;48.082;17.260;2024-03-29T07:11:11;996.947;;;13.597;72.583
84734;BME280;74957;48.082;17.260;2024-03-29T07:16:09;996.735;;;13.657;70.416
84734;BME280;74957;48.082;17.260;2024-03-29T07:21:09;996.52;;;14.0;69.47
84734;BME280;74957;48.082;17.260;2024-03-29T07:26:14;996.402;;;13.818;69.299
84734;BME280;74957;48.082;17.260;2024-03-29T07:31:13;996.425;;;14.282;67.712
84734;BME280;74957;48.082;17.260;2024-03-29T07:36:07;996.388;;;14.11;67.81
84734;BME280;74957;48.082;17.260;2024-03-29T07:41:10;996.292;;;14.543;67.676
84734;BME280;74957;48.082;17.260;2024-03-29T07:46:15;996.322;;;14.866;66.193
84734;BME280;74957;48.082;17.260;2024-03-29T07:51:13;996.387;;;15.198;64.642
84734;BME280;74957;48.082;17.260;2024-03-29T07:56:09;996.179;;;15.138;64.85
84734;BME280;74957;48.082;17.260;2024-03-29T08:01:20;996.197;;;15.893;64.044
84734;BME280;74957;48.082;17.260;2024-03-29T08:06:15;996.273;;;15.53;64.484
84734;BME280;74957;48.082;17.260;2024-03-29T08:11:09;996.283;;;15.792;63.44
84734;BME280;74957;48.082;17.260;2024-03-29T08:16:11;996.142;;;15.722;62.225
84734;BME280;74957;48.082;17.260;2024-03-29T08:21:07;996.302;;;16.225;61.462
84734;BME280;74957;48.082;17.260;2024-03-29T08:26:10;996.37;;;15.692;60.84
84734;BME280;74957;48.082;17.260;2024-03-29T08:31:09;996.248;;;15.359;62.384
84734;BME280;74957;48.082;17.260;2024-03-29T08:36:11;996.184;;;15.621;63.367
84734;BME280;74957;48.082;17.260;2024-03-29T08:41:10;996.028;;;15.53;63.068
84734;BME280;74957;48.082;17.260;2024-03-29T08:46:17;995.84;;;15.863;62.628
84734;BME280;74957;48.082;17.260;2024-03-29T08:51:09;996.067;;;16.457;62.946
84734;BME280;74957;48.082;17.260;2024-03-29T08:56:11;996.04;;;16.487;62.946
84734;BME280;74957;48.082;17.260;2024-03-29T09:01:15;995.893;;;16.608;63.348
84734;BME280;74957;48.082;17.260;2024-03-29T09:06:11;995.652;;;17.212;62.653
84734;BME280;74957;48.082;17.260;2024-03-29T09:11:11;995.832;;;17.253;62.048
84734;BME280;74957;48.082;17.260;2024-03-29T09:16:11;995.629;;;17.041;63.495
84734;BME280;74957;48.082;17.260;2024-03-29T09:21:11;995.644;;;17.454;63.531
84734;BME280;74957;48.082;17.260;2024-03-29T09:26:07;995.232;;;17.524;63.733
84734;BME280;74957;48.082;17.260;2024-03-29T09:31:16;995.386;;;17.212;64.27
84734;BME280;74957;48.082;17.260;2024-03-29T09:36:14;995.311;;;16.981;66.724
84734;BME280;74957;48.082;17.260;2024-03-29T09:41:19;995.091;;;17.041;66.119
84734;BME280;74957;48.082;17.260;2024-03-29T09:46:15;995.058;;;17.041;66.418
84734;BME280;74957;48.082;17.260;2024-03-29T09:51:11;995.054;;;17.373;65.448
84734;BME280;74957;48.082;17.260;2024-03-29T09:56:13;995.169;;;17.746;65.417
84734;BME280;74957;48.082;17.260;2024-03-29T10:01:12;994.93;;;17.212;66.492
84734;BME280;74957;48.082;17.260;2024-03-29T10:06:14;994.959;;;17.333;66.357
84734;BME280;74957;48.082;17.260;2024-03-29T10:11:11;995.011;;;17.565;66.022
84734;BME280;74957;48.082;17.260;2024-03-29T10:16:07;994.732;;;17.293;66.083
84734;BME280;74957;48.082;17.260;2024-03-29T10:21:08;994.709;;;17.484;66.455
84734;BME280;74957;48.082;17.260;2024-03-29T10:26:04;995.171;;;17.253;66.992
84734;BME280;74957;48.082;17.260;2024-03-29T10:31:06;994.804;;;17.696;66.931
84734;BME280;74957;48.082;17.260;2024-03-29T10:36:13;994.825;;;17.827;66.595
84734;BME280;74957;48.082;17.260;2024-03-29T10:41:10;994.802;;;17.625;66.125
84734;BME280;74957;48.082;17.260;2024-03-29T10:46:20;994.852;;;17.806;65.894
84734;BME280;74957;48.082;17.260;2024-03-29T10:51:11;994.559;;;18.582;64.288
84734;BME280;74957;48.082;17.260;2024-03-29T10:56:10;994.38;;;18.38;65.222
84734;BME280;74957;48.082;17.260;2024-03-29T11:01:14;994.592;;;18.29;64.618
84734;BME280;74957;48.082;17.260;2024-03-29T11:11:09;994.28;;;17.796;65.79
84734;BME280;74957;48.082;17.260;2024-03-29T11:16:11;994.215;;;17.555;67.334
84734;BME280;74957;48.082;17.260;2024-03-29T11:21:12;994.59;;;17.625;67.029
84734;BME280;74957;48.082;17.260;2024-03-29T11:26:06;994.124;;;18.219;66.364
84734;BME280;74957;48.082;17.260;2024-03-29T11:31:16;994.205;;;18.098;66.766
84734;BME280;74957;48.082;17.260;2024-03-29T11:36:14;994.055;;;18.169;66.968
84734;BME280;74957;48.082;17.260;2024-03-29T11:41:09;993.808;;;18.26;66.229
84734;BME280;74957;48.082;17.260;2024-03-29T11:46:12;993.992;;;18.38;67.236
84734;BME280;74957;48.082;17.260;2024-03-29T11:51:10;993.707;;;18.35;65.93
84734;BME280;74957;48.082;17.260;2024-03-29T11:56:08;993.661;;;18.501;66.803
84734;BME280;74957;48.082;17.260;2024-03-29T12:01:14;993.604;;;18.803;63.452
84734;BME280;74957;48.082;17.260;2024-03-29T12:06:06;993.388;;;19.075;62.317
84734;BME280;74957;48.082;17.260;2024-03-29T12:11:11;993.485;;;19.357;63.391
84734;BME280;74957;48.082;17.260;2024-03-29T12:16:13;993.346;;;19.408;61.255
84734;BME280;74957;48.082;17.260;2024-03-29T12:21:11;993.484;;;19.146;61.713
84734;BME280;74957;48.082;17.260;2024-03-29T12:26:10;993.021;;;19.226;62.793
84734;BME280;74957;48.082;17.260;2024-03-29T12:31:13;993.114;;;19.287;62.488
84734;BME280;74957;48.082;17.260;2024-03-29T12:36:11;993.039;;;19.367;62.189
84734;BME280;74957;48.082;17.260;2024-03-29T12:41:13;992.709;;;19.357;62.891
84734;BME280;74957;48.082;17.260;2024-03-29T12:46:14;992.977;;;19.458;62.256
84734;BME280;74957;48.082;17.260;2024-03-29T12:51:12;992.815;;;19.81;62.732
84734;BME280;74957;48.082;17.260;2024-03-29T12:56:05;992.903;;;19.71;62.933
84734;BME280;74957;48.082;17.260;2024-03-29T13:01:20;992.93;;;19.7;62.628
84734;BME280;74957;48.082;17.260;2024-03-29T13:06:15;992.85;;;19.73;61.426
84734;BME280;74957;48.082;17.260;2024-03-29T13:11:12;992.788;;;19.589;62.256
84734;BME280;74957;48.082;17.260;2024-03-29T13:16:15;992.791;;;19.559;62.158
84734;BME280;74957;48.082;17.260;2024-03-29T13:21:05;992.856;;;19.629;62.329
84734;BME280;74957;48.082;17.260;2024-03-29T13:26:06;992.654;;;19.559;63.763
84734;BME280;74957;48.082;17.260;2024-03-29T13:31:16;992.772;;;19.559;63.666
84734;BME280;74957;48.082;17.260;2024-03-29T13:36:06;992.725;;;19.589;63.965
84734;BME280;74957;48.082;17.260;2024-03-29T13:41:12;992.721;;;19.518;63.666
84734;BME280;74957;48.082;17.260;2024-03-29T13:46:17;992.751;;;19.458;64.166
84734;BME280;74957;48.082;17.260;2024-03-29T13:51:06;992.838;;;19.337;64.398
84734;BME280;74957;48.082;17.260;2024-03-29T13:56:09;992.732;;;19.257;63.995
84734;BME280;74957;48.082;17.260;2024-03-29T14:01:12;992.436;;;19.216;65.204
84734;BME280;74957;48.082;17.260;2024-03-29T14:06:10;992.38;;;18.995;65.533
84734;BME280;74957;48.082;17.260;2024-03-29T14:11:06;992.563;;;18.954;65.735
84734;BME280;74957;48.082;17.260;2024-03-29T14:16:13;992.609;;;19.075;64.929
84734;BME280;74957;48.082;17.260;2024-03-29T14:21:06;992.553;;;19.257;64.899
84734;BME280;74957;48.082;17.260;2024-03-29T14:26:10;992.402;;;19.247;63.391
84734;BME280;74957;48.082;17.260;2024-03-29T14:31:17;992.39;;;19.216;63.794
84734;BME280;74957;48.082;17.260;2024-03-29T14:36:06;992.58;;;19.176;63.593
84734;BME280;74957;48.082;17.260;2024-03-29T14:41:04;992.303;;;19.176;63.092
84734;BME280;74957;48.082;17.260;2024-03-29T14:46:11;992.249;;;19.327;63.293
84734;BME280;74957;48.082;17.260;2024-03-29T14:51:09;992.118;;;19.176;63.495
84734;BME280;74957;48.082;17.260;2024-03-29T14:56:07;992.133;;;19.136;63.019
84734;BME280;74957;48.082;17.260;2024-03-29T15:01:11;991.951;;;19.186;62.994
84734;BME280;74957;48.082;17.260;2024-03-29T15:06:06;992.109;;;19.367;62.891
84734;BME280;74957;48.082;17.260;2024-03-29T15:11:07;992.363;;;19.287;63.593
84734;BME280;74957;48.082;17.260;2024-03-29T15:16:11;991.994;;;19.005;64.13
84734;BME280;74957;48.082;17.260;2024-03-29T15:21:07;991.882;;;18.844;64.96
84734;BME280;74957;48.082;17.260;2024-03-29T15:26:08;991.872;;;18.582;65.796
84734;BME280;74957;48.082;17.260;2024-03-29T15:31:14;991.98;;;18.441;66.229
84734;BME280;74957;48.082;17.260;2024-03-29T15:36:09;991.527;;;18.32;66.534
84734;BME280;74957;48.082;17.260;2024-03-29T15:41:12;991.921;;;18.29;67.035
84734;BME280;74957;48.082;17.260;2024-03-29T15:46:11;991.846;;;18.199;67.072
84734;BME280;74957;48.082;17.260;2024-03-29T15:51:11;991.965;;;18.149;67.572
84734;BME280;74957;48.082;17.260;2024-03-29T15:56:11;991.734;;;18.119;67.072
84734;BME280;74957;48.082;17.260;2024-03-29T16:01:16;991.643;;;18.068;67.572
84734;BME280;74957;48.082;17.260;2024-03-29T16:06:07;991.612;;;18.109;67.474
84734;BME280;74957;48.082;17.260;2024-03-29T16:11:08;991.703;;;18.068;67.572
84734;BME280;74957;48.082;17.260;2024-03-29T16:21:12;991.563;;;17.867;68.311
84734;BME280;74957;48.082;17.260;2024-03-29T16:26:08;991.495;;;17.806;68.61
84734;BME280;74957;48.082;17.260;2024-03-29T16:31:06;991.414;;;17.796;69.012
84734;BME280;74957;48.082;17.260;2024-03-29T16:36:09;991.587;;;17.696;69.653
84734;BME280;74957;48.082;17.260;2024-03-29T16:41:07;991.509;;;17.665;69.55
84734;BME280;74957;48.082;17.260;2024-03-29T16:46:08;991.473;;;17.565;69.855
84734;BME280;74957;48.082;17.260;2024-03-29T16:51:07;991.392;;;17.514;70.19
84734;BME280;74957;48.082;17.260;2024-03-29T16:56:05;991.278;;;17.454;70.19
84734;BME280;74957;48.082;17.260;2024-03-29T17:01:13;991.223;;;17.383;69.885
84734;BME280;74957;48.082;17.260;2024-03-29T17:06:10;991.132;;;17.373;70.19
84734;BME280;74957;48.082;17.260;2024-03-29T17:11:07;991.177;;;17.273;70.02
84734;BME280;74957;48.082;17.260;2024-03-29T17:16:07;991.221;;;17.273;70.02
84734;BME280;74957;48.082;17.260;2024-03-29T17:26:03;991.23;;;17.182;69.818
84734;BME280;74957;48.082;17.260;2024-03-29T17:31:03;991.259;;;17.112;69.617
84734;BME280;74957;48.082;17.260;2024-03-29T17:36:02;991.393;;;17.081;69.818
84734;BME280;74957;48.082;17.260;2024-03-29T17:41:08;991.611;;;17.041;69.855
84734;BME280;74957;48.082;17.260;2024-03-29T17:46:01;991.055;;;16.981;70.056
84734;BME280;74957;48.082;17.260;2024-03-29T17:51:06;991.182;;;16.94;70.355
84734;BME280;74957;48.082;17.260;2024-03-29T17:56:02;991.575;;;16.971;70.355
84734;BME280;74957;48.082;17.260;2024-03-29T18:01:03;991.537;;;16.9;71.063
84734;BME280;74957;48.082;17.260;2024-03-29T18:06:04;991.466;;;16.88;71.265
84734;BME280;74957;48.082;17.260;2024-03-29T18:11:02;991.528;;;16.819;71.704
84734;BME280;74957;48.082;17.260;2024-03-29T18:16:07;991.55;;;16.83;71.802
84734;BME280;74957;48.082;17.260;2024-03-29T18:21:03;991.645;;;16.739;72.211
84734;BME280;74957;48.082;17.260;2024-03-29T18:26:07;991.993;;;16.719;72.51
84734;BME280;74957;48.082;17.260;2024-03-29T18:31:12;991.916;;;16.638;72.614
84734;BME280;74957;48.082;17.260;2024-03-29T18:36:05;991.883;;;16.658;72.815
84734;BME280;74957;48.082;17.260;2024-03-29T18:41:02;991.688;;;16.558;72.949
84734;BME280;74957;48.082;17.260;2024-03-29T18:46:12;991.653;;;16.477;73.553
84734;BME280;74957;48.082;17.260;2024-03-29T18:51:06;991.846;;;16.427;73.553
84734;BME280;74957;48.082;17.260;2024-03-29T18:56:05;991.646;;;16.386;73.657
84734;BME280;74957;48.082;17.260;2024-03-29T19:06:05;991.579;;;16.376;73.486
84734;BME280;74957;48.082;17.260;2024-03-29T19:11:06;991.34;;;16.296;73.694
84734;BME280;74957;48.082;17.260;2024-03-29T19:15:57;991.087;;;16.376;73.389
84734;BME280;74957;48.082;17.260;2024-03-29T19:21:02;991.576;;;16.326;73.694
84734;BME280;74957;48.082;17.260;2024-03-29T19:26:00;991.832;;;16.276;73.486
84734;BME280;74957;48.082;17.260;2024-03-29T19:31:01;991.364;;;16.266;73.694
84734;BME280;74957;48.082;17.260;2024-03-29T19:36:05;991.533;;;16.175;73.895
84734;BME280;74957;48.082;17.260;2024-03-29T19:41:03;991.653;;;16.205;73.895
84734;BME280;74957;48.082;17.260;2024-03-29T19:46:04;992.111;;;16.175;73.993
84734;BME280;74957;48.082;17.260;2024-03-29T19:51:03;991.776;;;16.094;74.133
84734;BME280;74957;48.082;17.260;2024-03-29T19:56:04;991.883;;;16.165;73.993
84734;BME280;74957;48.082;17.260;2024-03-29T20:01:03;991.343;;;16.125;74.231
84734;BME280;74957;48.082;17.260;2024-03-29T20:06:06;992.06;;;16.115;74.335
84734;BME280;74957;48.082;17.260;2024-03-29T20:11:03;991.583;;;16.054;74.536
84734;BME280;74957;48.082;17.260;2024-03-29T20:16:14;991.815;;;15.984;74.738
84734;BME280;74957;48.082;17.260;2024-03-29T20:21:06;991.635;;;15.974;74.939
84734;BME280;74957;48.082;17.260;2024-03-29T20:26:03;991.621;;;15.893;75.177
84734;BME280;74957;48.082;17.260;2024-03-29T20:31:09;991.645;;;15.903;75.177
84734;BME280;74957;48.082;17.260;2024-03-29T20:36:12;991.375;;;15.863;75.378
84734;BME280;74957;48.082;17.260;2024-03-29T20:40:59;991.374;;;15.863;75.482
84734;BME280;74957;48.082;17.260;2024-03-29T20:46:15;991.615;;;15.843;75.58
84734;BME280;74957;48.082;17.260;2024-03-29T20:51:05;991.209;;;15.792;75.787
84734;BME280;74957;48.082;17.260;2024-03-29T20:56:10;991.702;;;15.752;75.885
84734;BME280;74957;48.082;17.260;2024-03-29T21:01:08;991.637;;;15.681;76.123
84734;BME280;74957;48.082;17.260;2024-03-29T21:06:06;991.817;;;15.641;76.324
84734;BME280;74957;48.082;17.260;2024-03-29T21:11:00;991.927;;;15.561;76.526
84734;BME280;74957;48.082;17.260;2024-03-29T21:16:14;991.902;;;15.621;76.428
84734;BME280;74957;48.082;17.260;2024-03-29T21:21:06;991.823;;;15.641;76.123
84734;BME280;74957;48.082;17.260;2024-03-29T21:26:03;991.778;;;15.601;76.123
84734;BME280;74957;48.082;17.260;2024-03-29T21:31:05;991.919;;;15.571;76.123
84734;BME280;74957;48.082;17.260;2024-03-29T21:36:03;991.878;;;15.54;76.123
84734;BME280;74957;48.082;17.260;2024-03-29T21:41:02;991.678;;;15.601;75.519
84734;BME280;74957;48.082;17.260;2024-03-29T21:46:06;991.826;;;15.571;75.519
84734;BME280;74957;48.082;17.260;2024-03-29T21:51:03;991.805;;;15.54;75.11
84734;BME280;74957;48.082;17.260;2024-03-29T21:55:56;991.855;;;15.54;74.908
84734;BME280;74957;48.082;17.260;2024-03-29T22:01:08;991.917;;;15.561;74.506
84734;BME280;74957;48.082;17.260;2024-03-29T22:06:02;991.936;;;15.571;74.2
84734;BME280;74957;48.082;17.260;2024-03-29T22:10:58;992.001;;;15.561;73.999
84734;BME280;74957;48.082;17.260;2024-03-29T22:16:05;992.072;;;15.611;73.09
84734;BME280;74957;48.082;17.260;2024-03-29T22:21:05;992.032;;;15.611;72.681
84734;BME280;74957;48.082;17.260;2024-03-29T22:25:57;992.214;;;15.621;72.278
84734;BME280;74957;48.082;17.260;2024-03-29T22:31:06;992.159;;;15.571;71.973
84734;BME280;74957;48.082;17.260;2024-03-29T22:36:03;992.027;;;15.621;71.368
84734;BME280;74957;48.082;17.260;2024-03-29T22:40:58;992.03;;;15.712;71.027
84734;BME280;74957;48.082;17.260;2024-03-29T22:46:05;992.035;;;15.641;71.063
84734;BME280;74957;48.082;17.260;2024-03-29T22:51:02;991.902;;;15.671;70.758
84734;BME280;74957;48.082;17.260;2024-03-29T22:55:59;992.147;;;15.681;70.654
84734;BME280;74957;48.082;17.260;2024-03-29T23:01:15;992.062;;;15.742;69.916
84734;BME280;74957;48.082;17.260;2024-03-29T23:06:08;992.072;;;15.772;69.714
84734;BME280;74957;48.082;17.260;2024-03-29T23:11:08;991.966;;;15.772;69.409
84734;BME280;74957;48.082;17.260;2024-03-29T23:16:36;991.734;;;15.843;69.006
84734;BME280;74957;48.082;17.260;2024-03-29T23:21:04;991.872;;;15.984;68.365
84734;BME280;74957;48.082;17.260;2024-03-29T23:26:04;992.096;;;15.923;68.262
84734;BME280;74957;48.082;17.260;2024-03-29T23:31:14;991.927;;;15.974;68.262
84734;BME280;74957;48.082;17.260;2024-03-29T23:36:02;992.254;;;15.974;68.365
84734;BME280;74957;48.082;17.260;2024-03-29T23:41:01;992.311;;;16.004;67.963
84734;BME280;74957;48.082;17.260;2024-03-29T23:46:07;992.071;;;16.014;68.06
84734;BME280;74957;48.082;17.260;2024-03-29T23:51:05;992.164;;;15.943;67.859
84734;BME280;74957;48.082;17.260;2024-03-29T23:56:01;992.308;;;16.054;67.352
